Arthur, North Dakota
Current Conditions -  °F | °C
As of 1:40 AM on Monday 22 Dec 2014 (Local Time) from KFAR Reporting Station
Haze Haze  
Wind Chill: -1°   Ceiling: 700
Heat Index:   Visibility: 5mi
Dew Point:   Wind: 9mph
Humidity: 93%   Direction: 140°SE
Pressure: 29.52"   Gusts: NA
Location:  47.1°N, 97.22°W
Report Text: KFAR 220740Z 14008KT 5SM BR BKN007 OVC018 03/02 A2952 RMK AO2 T00280017
Loading
Personal Weather Stations






























Interactive Weather Map New forecast layout! Learn more

10-Day Weather Forecast

Advertisements
Track Severe Weather on mobile